createdAt,value
2023-05-10T00:01:20.200Z,12.30
2023-05-10T00:03:47.008Z,12.30
2023-05-10T00:06:20.508Z,12.30
2023-05-10T00:09:02.889Z,12.30
2023-05-10T00:11:42.048Z,12.20
2023-05-10T00:14:20.968Z,12.20
2023-05-10T00:16:48.120Z,12.20
2023-05-10T00:51:03.229Z,12.20
2023-05-10T00:53:32.827Z,12.20
2023-05-10T00:59:33.403Z,12.20
2023-05-10T01:02:04.110Z,12.20
2023-05-10T01:05:07.091Z,12.10
2023-05-10T01:07:33.592Z,12.10
2023-05-10T01:10:00.561Z,12.10
2023-05-10T01:12:47.409Z,12.10
2023-05-10T01:45:19.540Z,11.80
2023-05-10T01:48:16.187Z,11.80
2023-05-10T01:50:47.422Z,11.80
2023-05-10T01:53:22.173Z,11.80
2023-05-10T02:09:47.363Z,11.80
2023-05-10T02:15:08.979Z,11.80
2023-05-10T02:17:37.968Z,11.90
2023-05-10T02:51:05.552Z,11.90
2023-05-10T02:54:08.573Z,11.90
2023-05-10T03:06:12.724Z,12.00
2023-05-10T03:08:39.775Z,12.00
2023-05-10T03:11:46.221Z,12.00
2023-05-10T03:27:56.675Z,12.00
2023-05-10T03:36:26.255Z,12.00
2023-05-10T03:44:40.905Z,12.00
2023-05-10T03:47:26.228Z,12.10
2023-05-10T03:49:56.555Z,12.10
2023-05-10T03:52:23.613Z,12.10
2023-05-10T03:54:50.402Z,12.10
2023-05-10T03:57:26.153Z,12.10
2023-05-10T03:59:55.900Z,12.10
2023-05-10T04:02:32.042Z,12.10
2023-05-10T04:04:58.841Z,12.10
2023-05-10T04:07:33.525Z,12.10
2023-05-10T04:10:00.111Z,12.10
2023-05-10T04:12:39.101Z,12.10
2023-05-10T04:15:15.029Z,12.10
2023-05-10T04:17:41.748Z,12.10
2023-05-10T04:20:12.223Z,12.10
2023-05-10T04:22:48.084Z,12.10
2023-05-10T04:25:14.854Z,12.10
2023-05-10T04:27:41.959Z,12.10
2023-05-10T04:30:11.708Z,12.10
2023-05-10T04:32:50.539Z,12.10
2023-05-10T04:38:07.185Z,12.10
2023-05-10T04:40:36.720Z,12.10
2023-05-10T04:43:03.480Z,12.10
2023-05-10T04:45:32.900Z,12.10
2023-05-10T04:48:06.461Z,12.10
2023-05-10T04:50:42.193Z,12.10
2023-05-10T04:53:09.205Z,12.10
2023-05-10T05:47:46.745Z,11.80
2023-05-10T05:50:21.010Z,11.80
2023-05-10T05:52:47.877Z,11.90
2023-05-10T05:55:30.324Z,11.90
2023-05-10T05:57:57.128Z,11.90
2023-05-10T06:00:24.582Z,12.00
2023-05-10T06:03:03.674Z,12.00
2023-05-10T06:08:38.652Z,12.00
2023-05-10T06:11:10.229Z,12.00
2023-05-10T06:13:43.505Z,12.00
2023-05-10T06:16:10.421Z,12.00
2023-05-10T06:22:02.475Z,11.90
2023-05-10T06:24:29.301Z,12.00
2023-05-10T06:30:26.912Z,12.20
2023-05-10T06:36:17.989Z,12.30
2023-05-10T06:38:44.792Z,12.30
2023-05-10T06:41:21.227Z,12.40
2023-05-10T06:43:49.291Z,12.50
2023-05-10T06:46:19.258Z,12.50
2023-05-10T06:48:48.711Z,12.60
2023-05-10T06:51:25.735Z,12.80
2023-05-10T06:54:23.529Z,13.00
2023-05-10T07:00:00.264Z,13.30
2023-05-10T07:02:38.682Z,13.20
2023-05-10T07:05:05.797Z,13.10
2023-05-10T07:06:29.555Z,13.10
2023-05-10T07:07:49.662Z,13.00
2023-05-10T07:11:01.693Z,13.00
2023-05-10T07:17:03.557Z,13.00
2023-05-10T07:19:58.525Z,13.00
2023-05-10T07:22:37.163Z,12.90
2023-05-10T07:25:10.200Z,13.00
2023-05-10T07:27:54.807Z,12.90
2023-05-10T07:30:27.549Z,12.90
2023-05-10T07:32:56.449Z,12.90
2023-05-10T07:35:25.419Z,13.00
2023-05-10T07:37:57.940Z,13.10
2023-05-10T07:43:46.456Z,13.20
2023-05-10T07:49:08.355Z,13.30
2023-05-10T07:51:35.086Z,13.40
2023-05-10T07:54:12.448Z,13.30
2023-05-10T07:56:42.526Z,13.40
2023-05-10T07:59:16.452Z,13.40
2023-05-10T08:01:44.987Z,13.40
2023-05-10T08:04:29.738Z,13.40
2023-05-10T08:07:31.283Z,13.30
2023-05-10T08:09:58.242Z,13.30
2023-05-10T12:24:12.020Z,14.30
2023-05-10T12:26:51.542Z,14.20
2023-05-10T12:29:24.018Z,13.90
2023-05-10T12:31:58.738Z,13.90
2023-05-10T12:40:32.982Z,13.80
2023-05-10T12:43:17.882Z,13.90
2023-05-10T12:45:57.274Z,14.00
2023-05-10T12:48:24.248Z,14.00
2023-05-10T12:51:06.311Z,14.10
2023-05-10T12:58:49.339Z,14.30
2023-05-10T13:07:06.410Z,14.30
2023-05-10T13:12:10.243Z,14.40
2023-05-10T13:14:40.163Z,14.50
2023-05-10T13:17:10.005Z,14.50
2023-05-10T13:19:51.238Z,14.50
2023-05-10T13:22:25.644Z,14.40
2023-05-10T13:24:59.469Z,14.40
2023-05-10T13:27:32.452Z,14.40
2023-05-10T13:30:08.714Z,14.40
2023-05-10T13:32:38.523Z,14.40
2023-05-10T13:35:11.917Z,14.40
2023-05-10T13:44:08.298Z,14.30
2023-05-10T13:46:49.628Z,14.30
2023-05-10T13:49:16.267Z,14.40
2023-05-10T13:51:49.161Z,14.30
2023-05-10T13:54:23.918Z,14.30
2023-05-10T13:56:53.292Z,14.20
2023-05-10T13:59:34.427Z,14.20
2023-05-10T14:02:01.634Z,14.30
2023-05-10T14:04:31.326Z,14.20
2023-05-10T14:06:58.077Z,14.20
2023-05-10T14:09:31.942Z,14.30
2023-05-10T14:21:11.933Z,14.30
2023-05-10T14:23:57.735Z,14.40
2023-05-10T14:26:51.698Z,14.50
2023-05-10T14:29:18.542Z,14.50
2023-05-10T14:32:08.032Z,14.50
2023-05-10T14:34:32.876Z,14.50
2023-05-10T14:39:38.384Z,14.50
2023-05-10T15:00:00.004Z,14.50
2023-05-10T15:02:46.201Z,14.60
2023-05-10T15:18:19.062Z,14.50
2023-05-10T15:27:27.311Z,14.40
2023-05-10T15:30:03.019Z,14.40
2023-05-10T15:41:33.194Z,14.50
2023-05-10T15:44:05.607Z,14.50
2023-05-10T15:46:41.644Z,14.50
2023-05-10T15:49:14.509Z,14.40
2023-05-10T15:55:12.948Z,14.50
2023-05-10T15:57:52.279Z,14.70
2023-05-10T16:13:13.811Z,14.70
2023-05-10T17:56:47.070Z,14.00
2023-05-10T18:15:40.924Z,14.00
2023-05-10T18:39:06.511Z,13.80
2023-05-10T18:41:39.681Z,13.80
2023-05-10T18:44:06.488Z,13.70
2023-05-10T18:46:39.427Z,13.70
2023-05-10T18:49:06.231Z,13.60
2023-05-10T18:52:02.937Z,13.60
2023-05-10T18:54:29.689Z,13.50
2023-05-10T18:59:36.964Z,13.50
2023-05-10T19:02:06.280Z,13.40
2023-05-10T19:04:46.936Z,13.30
2023-05-10T19:07:13.683Z,13.30
2023-05-10T19:09:40.481Z,13.20
2023-05-10T19:12:07.199Z,13.20
2023-05-10T19:14:33.981Z,13.20
2023-05-10T19:17:02.587Z,13.10
2023-05-10T19:19:32.123Z,13.10
2023-05-10T19:21:58.799Z,13.00
2023-05-10T19:24:25.859Z,13.00
2023-05-10T19:26:52.781Z,12.90
2023-05-10T19:29:19.560Z,12.90
2023-05-10T19:32:01.047Z,12.80
2023-05-10T19:38:07.910Z,12.80
2023-05-10T21:52:11.824Z,11.80
2023-05-10T23:04:49.621Z,11.70
2023-05-10T23:20:45.882Z,11.70
2023-05-10T23:23:27.526Z,11.70
2023-05-10T23:26:03.415Z,11.70
2023-05-10T23:28:39.070Z,11.70
2023-05-10T23:31:10.952Z,11.70
2023-05-10T23:47:56.905Z,11.70
2023-05-10T23:50:26.299Z,11.70
2023-05-10T23:53:00.683Z,11.70
2023-05-10T23:55:30.440Z,11.70
2023-05-10T23:58:08.880Z,11.70
